sensor_id;sensor_type;location;lat;lon;timestamp;temperature;humidity
61339;DHT22;47213;52.362;4.606;2023-03-14T00:03:16;10.90;99.90
61339;DHT22;47213;52.362;4.606;2023-03-14T00:08:16;10.80;99.90
61339;DHT22;47213;52.362;4.606;2023-03-14T00:18:16;10.70;99.90
61339;DHT22;47213;52.362;4.606;2023-03-14T00:23:16;10.60;99.90
61339;DHT22;47213;52.362;4.606;2023-03-14T00:33:16;10.50;99.90
61339;DHT22;47213;52.362;4.606;2023-03-14T00:38:16;10.60;99.90
61339;DHT22;47213;52.362;4.606;2023-03-14T00:58:17;10.50;99.90
61339;DHT22;47213;52.362;4.606;2023-03-14T01:03:16;10.40;99.90
61339;DHT22;47213;52.362;4.606;2023-03-14T01:08:17;10.30;99.90
61339;DHT22;47213;52.362;4.606;2023-03-14T01:13:17;10.20;99.90
61339;DHT22;47213;52.362;4.606;2023-03-14T01:28:17;10.10;99.90
61339;DHT22;47213;52.362;4.606;2023-03-14T01:38:17;10.00;99.90
61339;DHT22;47213;52.362;4.606;2023-03-14T01:43:18;10.10;99.90
61339;DHT22;47213;52.362;4.606;2023-03-14T01:48:17;10.00;99.90
61339;DHT22;47213;52.362;4.606;2023-03-14T01:53:17;9.90;99.90
61339;DHT22;47213;52.362;4.606;2023-03-14T01:58:17;10.00;99.90
61339;DHT22;47213;52.362;4.606;2023-03-14T02:03:17;10.10;99.90
61339;DHT22;47213;52.362;4.606;2023-03-14T02:13:17;10.00;99.90
61339;DHT22;47213;52.362;4.606;2023-03-14T02:18:17;10.20;99.90
61339;DHT22;47213;52.362;4.606;2023-03-14T02:53:18;10.40;99.90
61339;DHT22;47213;52.362;4.606;2023-03-14T02:58:17;10.50;99.90
61339;DHT22;47213;52.362;4.606;2023-03-14T03:03:17;10.40;99.90
61339;DHT22;47213;52.362;4.606;2023-03-14T03:08:18;10.50;99.90
61339;DHT22;47213;52.362;4.606;2023-03-14T03:13:17;10.60;99.90
61339;DHT22;47213;52.362;4.606;2023-03-14T03:33:17;10.70;99.90
61339;DHT22;47213;52.362;4.606;2023-03-14T03:43:17;10.80;99.90
61339;DHT22;47213;52.362;4.606;2023-03-14T03:53:17;10.70;99.90
61339;DHT22;47213;52.362;4.606;2023-03-14T04:03:17;10.40;99.90
61339;DHT22;47213;52.362;4.606;2023-03-14T04:08:17;10.10;99.90
61339;DHT22;47213;52.362;4.606;2023-03-14T04:13:17;10.00;99.90
61339;DHT22;47213;52.362;4.606;2023-03-14T04:18:17;9.90;99.90
61339;DHT22;47213;52.362;4.606;2023-03-14T04:23:17;9.80;99.90
61339;DHT22;47213;52.362;4.606;2023-03-14T04:28:17;9.90;99.90
61339;DHT22;47213;52.362;4.606;2023-03-14T04:33:17;9.70;99.90
61339;DHT22;47213;52.362;4.606;2023-03-14T04:43:17;9.60;99.90
61339;DHT22;47213;52.362;4.606;2023-03-14T04:48:17;9.50;99.90
61339;DHT22;47213;52.362;4.606;2023-03-14T05:08:17;9.60;99.90
61339;DHT22;47213;52.362;4.606;2023-03-14T05:13:17;9.40;99.90
61339;DHT22;47213;52.362;4.606;2023-03-14T05:33:17;9.20;99.90
61339;DHT22;47213;52.362;4.606;2023-03-14T05:38:17;9.30;99.90
61339;DHT22;47213;52.362;4.606;2023-03-14T05:43:17;9.40;99.90
61339;DHT22;47213;52.362;4.606;2023-03-14T06:08:17;9.30;99.90
61339;DHT22;47213;52.362;4.606;2023-03-14T06:23:17;9.20;99.90
61339;DHT22;47213;52.362;4.606;2023-03-14T06:28:17;9.30;99.90
61339;DHT22;47213;52.362;4.606;2023-03-14T06:43:17;9.40;99.90
61339;DHT22;47213;52.362;4.606;2023-03-14T06:48:17;9.50;99.90
61339;DHT22;47213;52.362;4.606;2023-03-14T07:03:17;9.40;99.90
61339;DHT22;47213;52.362;4.606;2023-03-14T07:08:17;9.10;99.90
61339;DHT22;47213;52.362;4.606;2023-03-14T07:13:17;8.90;99.90
61339;DHT22;47213;52.362;4.606;2023-03-14T07:18:17;8.80;99.90
61339;DHT22;47213;52.362;4.606;2023-03-14T07:28:17;8.70;99.90
61339;DHT22;47213;52.362;4.606;2023-03-14T07:33:17;8.50;99.90
61339;DHT22;47213;52.362;4.606;2023-03-14T07:38:18;8.30;99.90
61339;DHT22;47213;52.362;4.606;2023-03-14T07:43:18;8.40;99.90
61339;DHT22;47213;52.362;4.606;2023-03-14T07:58:18;8.50;99.90
61339;DHT22;47213;52.362;4.606;2023-03-14T08:03:18;8.60;99.90
61339;DHT22;47213;52.362;4.606;2023-03-14T08:18:18;8.80;99.90
61339;DHT22;47213;52.362;4.606;2023-03-14T08:23:18;9.00;99.90
61339;DHT22;47213;52.362;4.606;2023-03-14T08:28:18;9.20;99.90
61339;DHT22;47213;52.362;4.606;2023-03-14T08:33:18;9.00;99.90
61339;DHT22;47213;52.362;4.606;2023-03-14T08:38:18;9.20;99.90
61339;DHT22;47213;52.362;4.606;2023-03-14T08:58:18;9.30;99.90
61339;DHT22;47213;52.362;4.606;2023-03-14T09:03:18;9.40;99.90
61339;DHT22;47213;52.362;4.606;2023-03-14T09:08:18;9.30;99.90
61339;DHT22;47213;52.362;4.606;2023-03-14T09:18:18;8.70;99.90
61339;DHT22;47213;52.362;4.606;2023-03-14T09:23:18;8.20;99.90
61339;DHT22;47213;52.362;4.606;2023-03-14T09:28:18;8.50;99.90
61339;DHT22;47213;52.362;4.606;2023-03-14T09:33:18;8.90;99.90
61339;DHT22;47213;52.362;4.606;2023-03-14T09:38:18;9.40;99.90
61339;DHT22;47213;52.362;4.606;2023-03-14T09:43:18;9.60;99.90
61339;DHT22;47213;52.362;4.606;2023-03-14T09:48:27;9.70;99.90
61339;DHT22;47213;52.362;4.606;2023-03-14T09:53:23;9.60;99.90
61339;DHT22;47213;52.362;4.606;2023-03-14T09:58:20;9.40;99.90
61339;DHT22;47213;52.362;4.606;2023-03-14T10:03:21;9.20;99.90
61339;DHT22;47213;52.362;4.606;2023-03-14T10:08:18;9.40;99.90
61339;DHT22;47213;52.362;4.606;2023-03-14T10:13:20;9.80;98.30
61339;DHT22;47213;52.362;4.606;2023-03-14T10:18:18;10.00;97.80
61339;DHT22;47213;52.362;4.606;2023-03-14T10:23:23;9.90;95.40
61339;DHT22;47213;52.362;4.606;2023-03-14T10:28:26;10.30;90.60
61339;DHT22;47213;52.362;4.606;2023-03-14T10:48:19;10.50;74.50
61339;DHT22;47213;52.362;4.606;2023-03-14T11:03:18;10.80;70.10
61339;DHT22;47213;52.362;4.606;2023-03-14T11:18:26;14.20;60.00
61339;DHT22;47213;52.362;4.606;2023-03-14T11:23:22;15.90;56.40
61339;DHT22;47213;52.362;4.606;2023-03-14T11:28:22;18.70;43.90
61339;DHT22;47213;52.362;4.606;2023-03-14T11:33:27;18.90;38.20
61339;DHT22;47213;52.362;4.606;2023-03-14T11:38:24;19.30;31.70
61339;DHT22;47213;52.362;4.606;2023-03-14T11:43:37;20.60;34.00
61339;DHT22;47213;52.362;4.606;2023-03-14T12:08:22;18.20;27.00
61339;DHT22;47213;52.362;4.606;2023-03-14T12:13:18;18.90;30.10
61339;DHT22;47213;52.362;4.606;2023-03-14T12:18:20;22.10;26.40
61339;DHT22;47213;52.362;4.606;2023-03-14T12:23:18;22.00;26.40
61339;DHT22;47213;52.362;4.606;2023-03-14T12:28:19;22.80;23.60
61339;DHT22;47213;52.362;4.606;2023-03-14T12:33:19;20.60;21.50
61339;DHT22;47213;52.362;4.606;2023-03-14T12:38:23;18.90;25.40
61339;DHT22;47213;52.362;4.606;2023-03-14T12:43:27;17.70;27.20
61339;DHT22;47213;52.362;4.606;2023-03-14T12:53:23;15.90;31.80
61339;DHT22;47213;52.362;4.606;2023-03-14T13:03:20;14.40;33.70
61339;DHT22;47213;52.362;4.606;2023-03-14T13:13:22;13.90;34.10
61339;DHT22;47213;52.362;4.606;2023-03-14T13:18:27;13.70;33.80
61339;DHT22;47213;52.362;4.606;2023-03-14T13:23:20;13.40;35.60
61339;DHT22;47213;52.362;4.606;2023-03-14T13:33:19;13.10;36.60
61339;DHT22;47213;52.362;4.606;2023-03-14T13:38:19;13.20;37.10
61339;DHT22;47213;52.362;4.606;2023-03-14T13:43:20;12.60;36.00
61339;DHT22;47213;52.362;4.606;2023-03-14T13:48:18;12.70;37.50
61339;DHT22;47213;52.362;4.606;2023-03-14T13:53:19;12.50;39.40
61339;DHT22;47213;52.362;4.606;2023-03-14T13:58:20;12.40;40.20
61339;DHT22;47213;52.362;4.606;2023-03-14T14:03:19;12.30;38.70
61339;DHT22;47213;52.362;4.606;2023-03-14T14:08:19;12.20;37.40
61339;DHT22;47213;52.362;4.606;2023-03-14T14:38:19;12.10;38.50
61339;DHT22;47213;52.362;4.606;2023-03-14T14:53:20;11.80;39.10
61339;DHT22;47213;52.362;4.606;2023-03-14T14:58:23;11.50;38.40
61339;DHT22;47213;52.362;4.606;2023-03-14T15:03:19;10.90;40.20
61339;DHT22;47213;52.362;4.606;2023-03-14T15:08:19;11.10;40.50
61339;DHT22;47213;52.362;4.606;2023-03-14T15:13:19;10.80;41.10
61339;DHT22;47213;52.362;4.606;2023-03-14T15:23:19;10.40;44.60
61339;DHT22;47213;52.362;4.606;2023-03-14T15:28:20;10.70;43.60
61339;DHT22;47213;52.362;4.606;2023-03-14T15:33:19;10.40;43.10
61339;DHT22;47213;52.362;4.606;2023-03-14T15:38:20;10.50;44.10
61339;DHT22;47213;52.362;4.606;2023-03-14T15:43:19;10.30;42.80
61339;DHT22;47213;52.362;4.606;2023-03-14T15:48:20;10.40;40.50
61339;DHT22;47213;52.362;4.606;2023-03-14T15:53:19;10.50;41.30
61339;DHT22;47213;52.362;4.606;2023-03-14T15:58:19;10.30;43.10
61339;DHT22;47213;52.362;4.606;2023-03-14T16:03:19;10.40;43.70
61339;DHT22;47213;52.362;4.606;2023-03-14T16:08:19;10.00;43.70
61339;DHT22;47213;52.362;4.606;2023-03-14T16:13:19;9.60;44.70
61339;DHT22;47213;52.362;4.606;2023-03-14T16:18:19;10.00;46.40
61339;DHT22;47213;52.362;4.606;2023-03-14T16:23:19;9.60;45.90
61339;DHT22;47213;52.362;4.606;2023-03-14T16:28:19;9.50;44.60
61339;DHT22;47213;52.362;4.606;2023-03-14T16:33:19;9.00;43.50
61339;DHT22;47213;52.362;4.606;2023-03-14T16:38:19;9.50;43.40
61339;DHT22;47213;52.362;4.606;2023-03-14T16:43:19;9.70;44.80
61339;DHT22;47213;52.362;4.606;2023-03-14T16:48:19;9.50;46.40
61339;DHT22;47213;52.362;4.606;2023-03-14T16:53:19;9.60;47.90
61339;DHT22;47213;52.362;4.606;2023-03-14T16:58:19;9.20;46.60
61339;DHT22;47213;52.362;4.606;2023-03-14T17:03:19;9.10;43.70
61339;DHT22;47213;52.362;4.606;2023-03-14T17:13:19;8.90;45.00
61339;DHT22;47213;52.362;4.606;2023-03-14T17:18:19;9.30;50.50
61339;DHT22;47213;52.362;4.606;2023-03-14T17:23:19;9.70;50.80
61339;DHT22;47213;52.362;4.606;2023-03-14T17:28:20;9.90;52.10
61339;DHT22;47213;52.362;4.606;2023-03-14T17:33:19;9.70;49.50
61339;DHT22;47213;52.362;4.606;2023-03-14T17:38:19;9.30;50.10
61339;DHT22;47213;52.362;4.606;2023-03-14T17:43:19;9.00;49.60
61339;DHT22;47213;52.362;4.606;2023-03-14T18:03:19;8.80;50.40
61339;DHT22;47213;52.362;4.606;2023-03-14T18:13:19;8.40;49.20
61339;DHT22;47213;52.362;4.606;2023-03-14T18:18:19;8.50;50.10
61339;DHT22;47213;52.362;4.606;2023-03-14T18:23:19;8.40;50.80
61339;DHT22;47213;52.362;4.606;2023-03-14T18:28:19;8.30;52.30
61339;DHT22;47213;52.362;4.606;2023-03-14T18:33:20;8.10;53.10
61339;DHT22;47213;52.362;4.606;2023-03-14T18:43:19;8.20;55.30
61339;DHT22;47213;52.362;4.606;2023-03-14T18:48:19;8.10;54.70
61339;DHT22;47213;52.362;4.606;2023-03-14T18:53:19;8.20;55.00
61339;DHT22;47213;52.362;4.606;2023-03-14T19:03:19;8.40;56.60
61339;DHT22;47213;52.362;4.606;2023-03-14T19:08:20;8.60;57.00
61339;DHT22;47213;52.362;4.606;2023-03-14T19:13:20;8.70;57.40
61339;DHT22;47213;52.362;4.606;2023-03-14T19:18:19;8.60;59.20
61339;DHT22;47213;52.362;4.606;2023-03-14T19:23:19;8.50;60.50
61339;DHT22;47213;52.362;4.606;2023-03-14T19:28:21;8.40;62.10
61339;DHT22;47213;52.362;4.606;2023-03-14T19:38:19;8.30;69.20
61339;DHT22;47213;52.362;4.606;2023-03-14T19:43:19;7.80;69.40
61339;DHT22;47213;52.362;4.606;2023-03-14T19:48:19;7.60;64.70
61339;DHT22;47213;52.362;4.606;2023-03-14T19:58:19;7.70;60.80
61339;DHT22;47213;52.362;4.606;2023-03-14T20:03:19;7.60;62.70
61339;DHT22;47213;52.362;4.606;2023-03-14T20:08:20;7.70;62.70
61339;DHT22;47213;52.362;4.606;2023-03-14T20:18:20;7.80;60.60
61339;DHT22;47213;52.362;4.606;2023-03-14T20:23:19;7.90;60.80
61339;DHT22;47213;52.362;4.606;2023-03-14T20:33:20;7.80;64.90
61339;DHT22;47213;52.362;4.606;2023-03-14T20:38:20;7.90;62.50
61339;DHT22;47213;52.362;4.606;2023-03-14T20:48:20;8.20;65.60
61339;DHT22;47213;52.362;4.606;2023-03-14T20:53:20;8.50;66.30
61339;DHT22;47213;52.362;4.606;2023-03-14T20:58:20;8.00;67.30
61339;DHT22;47213;52.362;4.606;2023-03-14T21:03:20;7.70;73.20
61339;DHT22;47213;52.362;4.606;2023-03-14T21:13:20;7.80;87.80
61339;DHT22;47213;52.362;4.606;2023-03-14T21:18:20;7.00;92.90
61339;DHT22;47213;52.362;4.606;2023-03-14T21:23:20;6.90;91.60
61339;DHT22;47213;52.362;4.606;2023-03-14T21:28:20;6.80;94.90
61339;DHT22;47213;52.362;4.606;2023-03-14T21:33:20;7.10;95.80
61339;DHT22;47213;52.362;4.606;2023-03-14T21:43:20;6.80;96.60
61339;DHT22;47213;52.362;4.606;2023-03-14T21:48:20;6.60;99.90
61339;DHT22;47213;52.362;4.606;2023-03-14T21:53:20;6.50;99.90
61339;DHT22;47213;52.362;4.606;2023-03-14T21:58:20;6.60;99.90
61339;DHT22;47213;52.362;4.606;2023-03-14T22:03:20;6.80;99.90
61339;DHT22;47213;52.362;4.606;2023-03-14T22:23:20;6.90;99.90
61339;DHT22;47213;52.362;4.606;2023-03-14T22:28:20;6.70;99.90
61339;DHT22;47213;52.362;4.606;2023-03-14T22:33:20;6.40;99.90
61339;DHT22;47213;52.362;4.606;2023-03-14T22:38:20;6.30;99.90
61339;DHT22;47213;52.362;4.606;2023-03-14T22:43:20;6.40;99.90
61339;DHT22;47213;52.362;4.606;2023-03-14T22:58:20;6.10;99.90
61339;DHT22;47213;52.362;4.606;2023-03-14T23:03:20;6.00;99.90
61339;DHT22;47213;52.362;4.606;2023-03-14T23:13:20;6.20;99.90
61339;DHT22;47213;52.362;4.606;2023-03-14T23:18:20;6.30;99.90
61339;DHT22;47213;52.362;4.606;2023-03-14T23:23:20;6.00;99.90
61339;DHT22;47213;52.362;4.606;2023-03-14T23:28:20;6.40;99.90
61339;DHT22;47213;52.362;4.606;2023-03-14T23:33:20;6.30;99.90
61339;DHT22;47213;52.362;4.606;2023-03-14T23:48:21;6.50;99.90
61339;DHT22;47213;52.362;4.606;2023-03-14T23:53:20;6.40;99.90
